createdAt,value
2022-08-11T00:02:28.455Z,16.78
2022-08-11T00:04:58.286Z,16.77
2022-08-11T00:07:29.221Z,16.76
2022-08-11T00:09:57.718Z,16.73
2022-08-11T00:12:27.650Z,16.68
2022-08-11T00:15:00.285Z,16.67
2022-08-11T00:17:30.100Z,16.66
2022-08-11T00:20:15.463Z,16.64
2022-08-11T00:22:48.378Z,16.63
2022-08-11T00:25:17.740Z,16.61
2022-08-11T00:27:46.018Z,16.61
2022-08-11T00:30:14.944Z,16.59
2022-08-11T00:32:44.954Z,16.57
2022-08-11T00:35:56.478Z,16.56
2022-08-11T00:38:07.654Z,16.55
2022-08-11T00:40:49.525Z,16.51
2022-08-11T00:43:24.804Z,16.50
2022-08-11T00:46:09.969Z,16.48
2022-08-11T00:48:46.244Z,16.47
2022-08-11T00:51:26.617Z,16.45
2022-08-11T00:54:40.549Z,16.44
2022-08-11T00:57:37.780Z,16.42
2022-08-11T01:00:13.768Z,16.38
2022-08-11T01:03:08.106Z,16.36
2022-08-11T01:05:47.005Z,16.34
2022-08-11T01:08:52.373Z,16.30
2022-08-11T01:11:57.404Z,16.25
2022-08-11T01:14:51.977Z,16.21
2022-08-11T01:18:05.029Z,16.17
2022-08-11T01:21:07.746Z,16.12
2022-08-11T01:24:09.094Z,16.09
2022-08-11T01:27:19.056Z,16.05
2022-08-11T01:30:18.749Z,15.98
2022-08-11T01:33:09.486Z,15.95
2022-08-11T01:35:56.469Z,15.93
2022-08-11T01:39:05.350Z,15.91
2022-08-11T01:42:14.788Z,15.87
2022-08-11T01:45:07.872Z,15.86
2022-08-11T01:47:54.352Z,15.85
2022-08-11T01:50:29.732Z,15.86
2022-08-11T01:53:12.658Z,15.85
2022-08-11T01:55:50.821Z,15.80
2022-08-11T01:58:40.715Z,15.75
2022-08-11T02:01:21.544Z,15.71
2022-08-11T02:03:57.918Z,15.72
2022-08-11T02:06:53.807Z,15.72
2022-08-11T02:09:34.019Z,15.72
2022-08-11T02:12:14.101Z,15.71
2022-08-11T02:14:53.448Z,15.71
2022-08-11T02:17:42.553Z,15.71
2022-08-11T02:20:36.901Z,15.65
2022-08-11T02:24:04.030Z,15.61
2022-08-11T02:26:24.549Z,15.53
2022-08-11T02:29:04.583Z,15.45
2022-08-11T02:32:24.831Z,15.34
2022-08-11T02:35:00.837Z,15.21
2022-08-11T02:37:38.281Z,15.11
2022-08-11T02:40:17.382Z,15.04
2022-08-11T02:43:01.973Z,14.96
2022-08-11T02:45:54.387Z,14.86
2022-08-11T02:48:53.172Z,14.79
2022-08-11T02:51:30.979Z,14.72
2022-08-11T02:54:08.490Z,14.68
2022-08-11T02:56:44.811Z,14.64
2022-08-11T02:59:43.379Z,14.59
2022-08-11T03:02:23.362Z,14.50
2022-08-11T03:05:03.791Z,14.43
2022-08-11T03:07:37.147Z,14.38
2022-08-11T03:10:11.492Z,14.32
2022-08-11T03:13:07.753Z,14.27
2022-08-11T03:16:07.450Z,14.20
2022-08-11T03:18:42.127Z,14.16
2022-08-11T03:21:18.714Z,14.14
2022-08-11T03:23:56.808Z,14.15
2022-08-11T03:26:29.701Z,14.14
2022-08-11T03:29:07.553Z,14.12
2022-08-11T03:31:45.412Z,14.11
2022-08-11T03:34:18.254Z,14.08
2022-08-11T03:37:17.506Z,14.04
2022-08-11T03:40:00.923Z,14.02
2022-08-11T03:42:42.534Z,13.97
2022-08-11T03:45:22.609Z,13.93
2022-08-11T03:48:01.842Z,13.91
2022-08-11T03:51:06.313Z,13.90
2022-08-11T03:53:49.277Z,13.87
2022-08-11T03:56:58.758Z,13.88
2022-08-11T04:00:07.893Z,13.93
2022-08-11T04:03:15.782Z,13.99
2022-08-11T04:06:22.048Z,14.05
2022-08-11T04:09:23.402Z,14.11
2022-08-11T04:12:14.827Z,14.19
2022-08-11T04:15:44.541Z,14.34
2022-08-11T04:18:32.000Z,14.50
2022-08-11T04:21:42.033Z,14.65
2022-08-11T04:24:39.557Z,14.79
2022-08-11T04:27:37.315Z,14.96
2022-08-11T04:30:11.951Z,15.13
2022-08-11T04:33:04.849Z,15.27
2022-08-11T04:35:48.618Z,15.42
2022-08-11T04:38:39.442Z,15.54
2022-08-11T04:41:32.965Z,15.65
2022-08-11T04:44:26.665Z,15.77
2022-08-11T04:47:05.950Z,15.89
2022-08-11T04:50:35.449Z,16.02
2022-08-11T04:53:33.077Z,16.15
2022-08-11T04:56:26.441Z,16.28
2022-08-11T04:59:40.354Z,16.46
2022-08-11T05:02:42.545Z,16.63
2022-08-11T05:05:32.346Z,16.87
2022-08-11T05:08:41.325Z,16.99
2022-08-11T05:11:44.956Z,17.20
2022-08-11T05:14:48.138Z,17.36
2022-08-11T05:17:40.496Z,17.49
2022-08-11T05:20:29.284Z,17.71
2022-08-11T05:23:19.514Z,18.00
2022-08-11T05:26:44.596Z,18.39
2022-08-11T05:29:20.306Z,18.76
2022-08-11T05:32:17.441Z,19.32
2022-08-11T05:34:51.074Z,20.04
2022-08-11T05:37:27.292Z,20.83
2022-08-11T05:40:19.609Z,21.83
2022-08-11T05:43:09.098Z,23.22
2022-08-11T05:46:02.510Z,24.30
2022-08-11T05:48:52.749Z,25.07
2022-08-11T05:51:38.950Z,25.82
2022-08-11T05:54:29.630Z,26.67
2022-08-11T05:56:59.539Z,27.55
2022-08-11T05:59:29.223Z,28.08
2022-08-11T06:02:02.902Z,28.68
2022-08-11T06:04:31.474Z,29.07
2022-08-11T06:07:02.756Z,29.36
2022-08-11T06:09:34.637Z,29.50
2022-08-11T06:12:05.022Z,29.93
2022-08-11T06:14:34.917Z,29.77
2022-08-11T06:17:05.474Z,29.82
2022-08-11T06:19:39.536Z,30.00
2022-08-11T06:22:11.063Z,30.01
2022-08-11T06:24:41.592Z,29.79
2022-08-11T06:27:13.977Z,29.78
2022-08-11T06:29:54.840Z,29.80
2022-08-11T06:32:27.421Z,30.16
2022-08-11T06:35:15.408Z,30.30
2022-08-11T06:37:58.926Z,29.55
2022-08-11T06:40:36.668Z,29.76
2022-08-11T06:43:16.342Z,29.93
2022-08-11T06:45:52.714Z,29.51
2022-08-11T06:48:24.176Z,29.14
2022-08-11T06:51:11.663Z,29.64
2022-08-11T06:53:44.265Z,29.57
2022-08-11T06:57:01.681Z,29.41
2022-08-11T07:00:12.597Z,29.59
2022-08-11T07:02:50.117Z,30.02
2022-08-11T07:05:23.526Z,29.51
2022-08-11T07:08:41.909Z,29.48
2022-08-11T07:11:57.346Z,30.18
2022-08-11T07:14:46.165Z,30.09
2022-08-11T07:17:21.387Z,29.84
2022-08-11T07:20:11.407Z,29.99
2022-08-11T07:23:04.731Z,29.73
2022-08-11T07:25:52.722Z,29.58
2022-08-11T07:28:42.892Z,29.64
2022-08-11T07:31:13.982Z,29.50
2022-08-11T07:34:07.300Z,29.42
2022-08-11T07:36:35.141Z,28.97
2022-08-11T07:39:04.988Z,28.76
2022-08-11T07:41:35.927Z,28.87
2022-08-11T07:44:09.831Z,28.69
2022-08-11T07:46:59.674Z,27.95
2022-08-11T07:49:47.849Z,27.66
2022-08-11T07:52:32.230Z,27.09
2022-08-11T07:55:03.535Z,26.43
2022-08-11T07:58:13.609Z,26.49
2022-08-11T08:00:56.262Z,26.12
2022-08-11T08:03:54.332Z,25.93
2022-08-11T08:06:41.342Z,25.50
2022-08-11T08:09:27.877Z,25.36
2022-08-11T08:12:14.718Z,25.29
2022-08-11T08:15:01.247Z,24.94
2022-08-11T08:18:20.903Z,25.11
2022-08-11T08:20:39.406Z,25.44
2022-08-11T08:23:08.017Z,25.72
2022-08-11T08:25:38.200Z,26.02
2022-08-11T08:28:10.757Z,26.04
2022-08-11T08:30:47.509Z,25.95
2022-08-11T08:33:18.296Z,26.08
2022-08-11T08:35:55.839Z,25.87
2022-08-11T08:38:24.159Z,25.67
2022-08-11T08:40:56.594Z,25.70
2022-08-11T08:43:26.516Z,25.62
2022-08-11T08:45:58.273Z,25.45
2022-08-11T08:48:27.381Z,25.51
2022-08-11T08:51:20.063Z,25.60
2022-08-11T08:53:53.444Z,25.30
2022-08-11T08:56:29.172Z,25.46
2022-08-11T08:59:01.906Z,25.66
2022-08-11T09:01:31.566Z,25.55
2022-08-11T09:04:04.632Z,25.67
2022-08-11T09:06:40.084Z,25.55
2022-08-11T09:09:09.195Z,25.42
2022-08-11T09:11:53.542Z,25.59
2022-08-11T09:14:25.358Z,25.57
2022-08-11T09:16:54.552Z,25.55
2022-08-11T09:19:22.674Z,25.66
2022-08-11T09:22:13.294Z,25.66
2022-08-11T09:24:58.800Z,25.65
2022-08-11T09:27:27.657Z,25.76
2022-08-11T09:29:57.171Z,25.85
2022-08-11T09:32:25.112Z,25.99
2022-08-11T09:34:54.308Z,25.94
2022-08-11T09:37:55.779Z,25.91
2022-08-11T09:40:31.405Z,26.10
2022-08-11T09:43:21.271Z,25.78
2022-08-11T09:45:52.369Z,25.89
2022-08-11T09:48:20.762Z,26.18
2022-08-11T09:50:51.446Z,26.41
2022-08-11T09:53:35.279Z,26.25
2022-08-11T09:56:28.847Z,26.62
2022-08-11T09:58:56.698Z,26.54
2022-08-11T10:01:31.130Z,26.42
2022-08-11T10:04:01.898Z,26.36
2022-08-11T10:06:54.403Z,26.55
2022-08-11T10:09:25.352Z,26.62
2022-08-11T10:11:58.020Z,26.70
2022-08-11T10:14:45.181Z,26.52
2022-08-11T10:17:17.112Z,26.83
2022-08-11T10:20:02.000Z,26.72
2022-08-11T10:22:50.328Z,26.46
2022-08-11T10:25:35.471Z,26.64
2022-08-11T10:28:29.011Z,26.88
2022-08-11T10:31:13.639Z,27.03
2022-08-11T10:34:01.586Z,27.00
2022-08-11T10:36:30.828Z,26.70
2022-08-11T10:39:00.344Z,26.96
2022-08-11T10:42:08.550Z,27.21
2022-08-11T10:44:39.125Z,27.35
2022-08-11T10:47:25.425Z,27.30
2022-08-11T10:50:09.794Z,27.35
2022-08-11T10:52:56.196Z,27.47
2022-08-11T10:55:42.537Z,27.30
2022-08-11T10:58:28.466Z,27.45
2022-08-11T11:00:58.782Z,27.63
2022-08-11T11:03:27.860Z,27.33
2022-08-11T11:06:28.729Z,27.35
2022-08-11T11:08:58.768Z,27.25
2022-08-11T11:11:51.474Z,27.21
2022-08-11T11:14:46.770Z,27.49
2022-08-11T11:17:38.881Z,27.34
2022-08-11T11:20:08.885Z,27.25
2022-08-11T11:23:04.481Z,27.41
2022-08-11T11:26:05.598Z,27.65
2022-08-11T11:28:47.989Z,27.55
2022-08-11T11:31:31.797Z,27.54
2022-08-11T11:34:15.480Z,27.40
2022-08-11T11:36:48.556Z,27.46
2022-08-11T11:39:21.365Z,27.94
2022-08-11T11:41:50.638Z,28.16
2022-08-11T11:44:19.057Z,28.30
2022-08-11T11:46:47.093Z,28.50
2022-08-11T11:49:18.531Z,28.29
2022-08-11T11:51:50.058Z,27.89
2022-08-11T11:54:23.681Z,27.82
2022-08-11T11:56:53.377Z,27.90
2022-08-11T11:59:40.146Z,27.89
2022-08-11T12:02:12.223Z,27.81
2022-08-11T12:04:43.441Z,28.02
2022-08-11T12:07:29.980Z,28.28
2022-08-11T12:10:00.151Z,28.18
2022-08-11T12:12:45.626Z,28.21
2022-08-11T12:15:14.168Z,28.15
2022-08-11T12:17:42.035Z,28.21
2022-08-11T12:20:32.146Z,28.22
2022-08-11T12:23:16.015Z,28.28
2022-08-11T12:26:26.330Z,28.40
2022-08-11T12:28:52.056Z,28.55
2022-08-11T12:31:25.813Z,28.61
2022-08-11T12:33:53.845Z,28.58
2022-08-11T12:36:23.129Z,28.53
2022-08-11T12:38:52.852Z,28.58
2022-08-11T12:41:40.821Z,28.76
2022-08-11T12:44:29.597Z,28.67
2022-08-11T12:47:00.589Z,28.60
2022-08-11T12:49:49.188Z,28.74
2022-08-11T12:52:23.221Z,28.93
2022-08-11T12:54:57.546Z,28.97
2022-08-11T12:57:49.576Z,29.01
2022-08-11T13:00:36.161Z,28.95
2022-08-11T13:03:24.191Z,29.02
2022-08-11T13:05:56.631Z,28.94
2022-08-11T13:08:25.885Z,28.79
2022-08-11T13:11:14.296Z,28.46
2022-08-11T13:13:55.353Z,28.80
2022-08-11T13:16:26.168Z,28.88
2022-08-11T13:18:54.484Z,28.83
2022-08-11T13:21:23.265Z,28.81
2022-08-11T13:23:59.640Z,28.86
2022-08-11T13:26:47.075Z,28.86
2022-08-11T13:29:25.236Z,28.67
2022-08-11T13:31:55.845Z,28.66
2022-08-11T13:34:26.681Z,28.61
2022-08-11T13:36:56.767Z,28.44
2022-08-11T13:39:26.935Z,28.56
2022-08-11T13:41:56.772Z,28.61
2022-08-11T13:44:28.318Z,28.62
2022-08-11T13:46:58.494Z,28.71
2022-08-11T13:49:27.468Z,28.63
2022-08-11T13:51:56.573Z,28.48
2022-08-11T13:54:27.825Z,28.37
2022-08-11T13:56:57.913Z,28.34
2022-08-11T13:59:30.979Z,28.20
2022-08-11T14:02:22.744Z,28.14
2022-08-11T14:04:56.066Z,28.17
2022-08-11T14:07:26.498Z,28.23
2022-08-11T14:09:59.559Z,28.20
2022-08-11T14:12:46.892Z,28.22
2022-08-11T14:15:20.702Z,28.16
2022-08-11T14:17:53.294Z,28.07
2022-08-11T14:20:39.450Z,27.97
2022-08-11T14:23:10.820Z,28.14
2022-08-11T14:26:02.305Z,28.18
2022-08-11T14:28:38.814Z,28.38
2022-08-11T14:31:11.274Z,28.45
2022-08-11T14:34:00.574Z,28.27
2022-08-11T14:36:29.610Z,28.43
2022-08-11T14:38:57.821Z,28.46
2022-08-11T14:42:11.119Z,28.58
2022-08-11T14:44:50.351Z,28.60
2022-08-11T14:47:23.843Z,28.50
2022-08-11T14:50:09.628Z,28.51
2022-08-11T14:52:39.336Z,28.50
2022-08-11T14:55:35.333Z,28.48
2022-08-11T14:58:04.254Z,28.58
2022-08-11T15:00:34.089Z,28.34
2022-08-11T15:03:13.695Z,28.16
2022-08-11T15:05:52.446Z,28.06
2022-08-11T15:08:42.276Z,28.06
2022-08-11T15:11:32.182Z,27.88
2022-08-11T15:14:00.915Z,27.84
2022-08-11T15:16:46.983Z,27.83
2022-08-11T15:19:19.535Z,27.81
2022-08-11T15:22:05.089Z,27.84
2022-08-11T15:24:35.454Z,27.97
2022-08-11T15:27:24.233Z,27.80
2022-08-11T15:30:17.588Z,27.69
2022-08-11T15:33:17.397Z,27.69
2022-08-11T15:36:03.905Z,27.71
2022-08-11T15:38:36.129Z,27.64
2022-08-11T15:41:23.670Z,27.66
2022-08-11T15:44:13.141Z,27.67
2022-08-11T15:46:43.345Z,27.59
2022-08-11T15:49:21.834Z,27.66
2022-08-11T15:52:01.934Z,27.63
2022-08-11T15:54:32.938Z,27.47
2022-08-11T15:57:02.579Z,27.52
2022-08-11T15:59:52.136Z,27.53
2022-08-11T16:02:41.549Z,27.60
2022-08-11T16:05:14.081Z,27.56
2022-08-11T16:08:03.935Z,27.52
2022-08-11T16:10:33.005Z,27.40
2022-08-11T16:13:17.302Z,27.38
2022-08-11T16:16:09.926Z,27.50
2022-08-11T16:18:43.900Z,27.43
2022-08-11T16:21:26.037Z,27.33
2022-08-11T16:24:07.614Z,27.19
2022-08-11T16:27:07.852Z,27.10
2022-08-11T16:29:28.550Z,27.17
2022-08-11T16:32:14.892Z,27.19
2022-08-11T16:35:02.609Z,27.02
2022-08-11T16:37:49.322Z,27.12
2022-08-11T16:40:20.670Z,26.96
2022-08-11T16:43:10.912Z,26.77
2022-08-11T16:45:58.213Z,26.78
2022-08-11T16:48:33.480Z,26.67
2022-08-11T16:51:06.113Z,26.62
2022-08-11T16:53:59.593Z,26.55
2022-08-11T16:56:25.984Z,26.39
2022-08-11T16:59:15.333Z,26.27
2022-08-11T17:01:46.434Z,26.24
2022-08-11T17:04:38.940Z,26.22
2022-08-11T17:07:41.736Z,26.05
2022-08-11T17:10:50.764Z,25.90
2022-08-11T17:13:28.974Z,25.82
2022-08-11T17:16:12.756Z,25.84
2022-08-11T17:18:52.406Z,25.74
2022-08-11T17:21:22.981Z,25.58
2022-08-11T17:23:54.800Z,25.57
2022-08-11T17:26:27.781Z,25.51
2022-08-11T17:29:00.234Z,25.43
2022-08-11T17:31:47.392Z,25.33
2022-08-11T17:34:32.752Z,25.22
2022-08-11T17:37:01.084Z,25.15
2022-08-11T17:39:32.515Z,25.07
2022-08-11T17:42:18.770Z,25.01
2022-08-11T17:45:06.812Z,25.00
2022-08-11T17:47:52.817Z,24.97
2022-08-11T17:50:21.155Z,24.90
2022-08-11T17:53:07.089Z,24.84
2022-08-11T17:55:54.333Z,24.78
2022-08-11T17:58:41.966Z,24.70
2022-08-11T18:01:12.653Z,24.68
2022-08-11T18:03:53.024Z,24.61
2022-08-11T18:06:34.004Z,24.57
2022-08-11T18:09:22.561Z,24.53
2022-08-11T18:12:11.515Z,24.50
2022-08-11T18:14:59.186Z,24.47
2022-08-11T18:17:46.021Z,24.36
2022-08-11T18:20:31.248Z,24.20
2022-08-11T18:23:19.542Z,24.11
2022-08-11T18:26:07.586Z,24.04
2022-08-11T18:28:57.942Z,23.91
2022-08-11T18:31:44.594Z,23.81
2022-08-11T18:34:38.985Z,23.66
2022-08-11T18:37:29.497Z,23.54
2022-08-11T18:40:18.369Z,23.42
2022-08-11T18:43:06.904Z,23.30
2022-08-11T18:46:07.077Z,23.13
2022-08-11T18:48:55.390Z,23.03
2022-08-11T18:51:44.019Z,22.92
2022-08-11T18:54:30.941Z,22.82
2022-08-11T18:57:19.698Z,22.72
2022-08-11T19:00:07.109Z,22.58
2022-08-11T19:02:55.524Z,22.43
2022-08-11T19:06:32.384Z,22.33
2022-08-11T19:08:52.956Z,22.21
2022-08-11T19:11:42.744Z,22.10
2022-08-11T19:14:30.485Z,22.01
2022-08-11T19:17:44.080Z,21.93
2022-08-11T19:20:24.695Z,21.84
2022-08-11T19:23:12.985Z,21.74
2022-08-11T19:26:01.714Z,21.63
2022-08-11T19:28:48.714Z,21.52
2022-08-11T19:31:34.046Z,21.43
2022-08-11T19:34:21.529Z,21.33
2022-08-11T19:37:07.133Z,21.23
2022-08-11T19:39:54.014Z,21.14
2022-08-11T19:42:41.819Z,21.04
2022-08-11T19:45:27.546Z,20.95
2022-08-11T19:48:31.238Z,20.91
2022-08-11T19:51:18.602Z,20.84
2022-08-11T19:54:05.886Z,20.74
2022-08-11T19:56:52.088Z,20.71
2022-08-11T19:59:39.882Z,20.65
2022-08-11T20:02:25.215Z,20.59
2022-08-11T20:05:10.425Z,20.53
2022-08-11T20:07:56.479Z,20.42
2022-08-11T20:10:41.682Z,20.37
2022-08-11T20:13:28.401Z,20.31
2022-08-11T20:16:17.006Z,20.25
2022-08-11T20:19:04.461Z,20.21
2022-08-11T20:21:50.804Z,20.15
2022-08-11T20:24:36.580Z,20.12
2022-08-11T20:27:25.311Z,20.06
2022-08-11T20:30:11.954Z,20.00
2022-08-11T20:33:00.571Z,19.95
2022-08-11T20:35:47.966Z,19.91
2022-08-11T20:38:34.509Z,19.85
2022-08-11T20:41:21.839Z,19.81
2022-08-11T20:44:09.784Z,19.76
2022-08-11T20:50:04.858Z,19.68
2022-08-11T20:52:50.550Z,19.65
2022-08-11T20:55:51.275Z,19.60
2022-08-11T20:59:13.481Z,19.56
2022-08-11T21:01:45.425Z,19.50
2022-08-11T21:04:31.041Z,19.45
2022-08-11T21:07:28.259Z,19.40
2022-08-11T21:10:22.937Z,19.35
2022-08-11T21:13:18.207Z,19.32
2022-08-11T21:16:25.618Z,19.27
2022-08-11T21:19:18.668Z,19.22
2022-08-11T21:22:06.320Z,19.17
2022-08-11T21:24:54.816Z,19.13
2022-08-11T21:27:42.122Z,19.08
2022-08-11T21:30:28.431Z,19.04
2022-08-11T21:33:13.682Z,19.00
2022-08-11T21:36:01.101Z,18.95
2022-08-11T21:38:47.606Z,18.90
2022-08-11T21:41:35.634Z,18.84
2022-08-11T21:44:22.394Z,18.81
2022-08-11T21:47:08.701Z,18.76
2022-08-11T21:49:55.731Z,18.71
2022-08-11T21:52:41.211Z,18.67
2022-08-11T21:55:27.985Z,18.63
2022-08-11T21:58:16.161Z,18.56
2022-08-11T22:01:02.600Z,18.52
2022-08-11T22:03:50.347Z,18.45
2022-08-11T22:06:36.835Z,18.39
2022-08-11T22:09:22.824Z,18.34
2022-08-11T22:12:30.073Z,18.30
2022-08-11T22:15:14.752Z,18.23
2022-08-11T22:17:59.681Z,18.17
2022-08-11T22:20:46.002Z,18.10
2022-08-11T22:23:36.099Z,18.07
2022-08-11T22:26:24.304Z,18.01
2022-08-11T22:29:09.573Z,17.95
2022-08-11T22:31:57.683Z,17.90
2022-08-11T22:34:52.661Z,17.82
2022-08-11T22:37:40.283Z,17.74
2022-08-11T22:40:27.610Z,17.63
2022-08-11T22:43:12.816Z,17.51
2022-08-11T22:45:58.222Z,17.41
2022-08-11T22:48:46.809Z,17.31
2022-08-11T22:51:33.614Z,17.18
2022-08-11T22:54:21.030Z,17.08
2022-08-11T22:57:07.344Z,16.99
2022-08-11T22:59:54.873Z,16.91
2022-08-11T23:02:41.280Z,16.86
2022-08-11T23:05:28.547Z,16.81
2022-08-11T23:08:14.536Z,16.77
2022-08-11T23:11:00.386Z,16.74
2022-08-11T23:13:46.619Z,16.73
2022-08-11T23:16:32.045Z,16.74
2022-08-11T23:20:08.790Z,16.79
2022-08-11T23:22:37.838Z,16.88
2022-08-11T23:25:32.488Z,16.90
2022-08-11T23:28:18.952Z,16.95
2022-08-11T23:31:04.227Z,17.03
2022-08-11T23:33:49.901Z,17.04
2022-08-11T23:36:46.542Z,17.08
2022-08-11T23:39:34.745Z,17.11
2022-08-11T23:42:21.336Z,17.14
2022-08-11T23:45:07.269Z,17.14
2022-08-11T23:47:57.581Z,17.16
2022-08-11T23:50:43.830Z,17.17
2022-08-11T23:53:29.726Z,17.19
2022-08-11T23:56:16.325Z,17.20
2022-08-11T23:59:02.265Z,17.23
